sensor_id;sensor_type;location;lat;lon;timestamp;P1;durP1;ratioP1;P2;durP2;ratioP2
21168;SDS011;10742;51.816;8.662;2024-01-10T00:02:57;14.43;;;4.43;;
21168;SDS011;10742;51.816;8.662;2024-01-10T00:06:18;11.43;;;4.20;;
21168;SDS011;10742;51.816;8.662;2024-01-10T00:09:40;13.47;;;4.13;;
21168;SDS011;10742;51.816;8.662;2024-01-10T00:13:01;16.53;;;5.13;;
21168;SDS011;10742;51.816;8.662;2024-01-10T00:16:22;18.37;;;4.60;;
21168;SDS011;10742;51.816;8.662;2024-01-10T00:19:43;14.77;;;4.67;;
21168;SDS011;10742;51.816;8.662;2024-01-10T00:23:05;14.40;;;4.20;;
21168;SDS011;10742;51.816;8.662;2024-01-10T00:26:27;19.27;;;4.70;;
21168;SDS011;10742;51.816;8.662;2024-01-10T00:29:48;15.60;;;4.53;;
21168;SDS011;10742;51.816;8.662;2024-01-10T00:33:12;16.00;;;5.30;;
21168;SDS011;10742;51.816;8.662;2024-01-10T00:36:33;16.07;;;4.50;;
21168;SDS011;10742;51.816;8.662;2024-01-10T00:39:55;11.63;;;4.30;;
21168;SDS011;10742;51.816;8.662;2024-01-10T00:43:16;12.43;;;4.43;;
21168;SDS011;10742;51.816;8.662;2024-01-10T00:46:37;12.90;;;4.43;;
21168;SDS011;10742;51.816;8.662;2024-01-10T00:49:59;18.43;;;4.67;;
21168;SDS011;10742;51.816;8.662;2024-01-10T00:53:20;17.23;;;4.83;;
21168;SDS011;10742;51.816;8.662;2024-01-10T00:56:42;16.47;;;5.00;;
21168;SDS011;10742;51.816;8.662;2024-01-10T01:00:07;15.30;;;4.37;;
21168;SDS011;10742;51.816;8.662;2024-01-10T01:03:29;14.43;;;5.00;;
21168;SDS011;10742;51.816;8.662;2024-01-10T01:06:50;13.70;;;4.57;;
21168;SDS011;10742;51.816;8.662;2024-01-10T01:10:11;15.83;;;4.90;;
21168;SDS011;10742;51.816;8.662;2024-01-10T01:13:33;14.03;;;4.53;;
21168;SDS011;10742;51.816;8.662;2024-01-10T01:16:54;16.13;;;4.70;;
21168;SDS011;10742;51.816;8.662;2024-01-10T01:20:15;15.50;;;4.97;;
21168;SDS011;10742;51.816;8.662;2024-01-10T01:23:37;15.97;;;4.77;;
21168;SDS011;10742;51.816;8.662;2024-01-10T01:27:01;15.23;;;4.97;;
21168;SDS011;10742;51.816;8.662;2024-01-10T01:30:23;16.13;;;4.60;;
21168;SDS011;10742;51.816;8.662;2024-01-10T01:33:45;14.73;;;4.87;;
21168;SDS011;10742;51.816;8.662;2024-01-10T01:37:07;17.07;;;4.90;;
21168;SDS011;10742;51.816;8.662;2024-01-10T01:40:28;15.53;;;4.83;;
21168;SDS011;10742;51.816;8.662;2024-01-10T01:43:49;16.57;;;4.90;;
21168;SDS011;10742;51.816;8.662;2024-01-10T01:47:11;14.93;;;4.63;;
21168;SDS011;10742;51.816;8.662;2024-01-10T01:50:33;15.70;;;4.67;;
21168;SDS011;10742;51.816;8.662;2024-01-10T01:53:54;18.23;;;5.10;;
21168;SDS011;10742;51.816;8.662;2024-01-10T01:57:16;14.87;;;4.77;;
21168;SDS011;10742;51.816;8.662;2024-01-10T02:00:37;15.90;;;4.97;;
21168;SDS011;10742;51.816;8.662;2024-01-10T02:04:03;14.33;;;4.80;;
21168;SDS011;10742;51.816;8.662;2024-01-10T02:07:24;17.30;;;4.77;;
21168;SDS011;10742;51.816;8.662;2024-01-10T02:10:45;11.93;;;4.50;;
21168;SDS011;10742;51.816;8.662;2024-01-10T02:14:06;14.87;;;4.90;;
21168;SDS011;10742;51.816;8.662;2024-01-10T02:17:27;16.97;;;4.60;;
21168;SDS011;10742;51.816;8.662;2024-01-10T02:20:49;15.17;;;4.73;;
21168;SDS011;10742;51.816;8.662;2024-01-10T02:24:11;19.10;;;4.80;;
21168;SDS011;10742;51.816;8.662;2024-01-10T02:27:33;13.70;;;4.83;;
21168;SDS011;10742;51.816;8.662;2024-01-10T02:30:56;13.87;;;4.53;;
21168;SDS011;10742;51.816;8.662;2024-01-10T02:34:18;15.40;;;4.70;;
21168;SDS011;10742;51.816;8.662;2024-01-10T02:37:40;16.63;;;5.00;;
21168;SDS011;10742;51.816;8.662;2024-01-10T02:41:01;16.43;;;5.33;;
21168;SDS011;10742;51.816;8.662;2024-01-10T02:44:23;16.40;;;4.67;;
21168;SDS011;10742;51.816;8.662;2024-01-10T02:47:45;17.20;;;5.27;;
21168;SDS011;10742;51.816;8.662;2024-01-10T02:51:06;16.00;;;4.97;;
21168;SDS011;10742;51.816;8.662;2024-01-10T02:54:28;14.43;;;4.53;;
21168;SDS011;10742;51.816;8.662;2024-01-10T02:57:49;19.93;;;5.03;;
21168;SDS011;10742;51.816;8.662;2024-01-10T03:01:10;17.57;;;5.20;;
21168;SDS011;10742;51.816;8.662;2024-01-10T03:04:31;15.10;;;5.03;;
21168;SDS011;10742;51.816;8.662;2024-01-10T03:07:53;20.47;;;4.90;;
21168;SDS011;10742;51.816;8.662;2024-01-10T03:11:14;18.53;;;4.83;;
21168;SDS011;10742;51.816;8.662;2024-01-10T03:14:35;18.37;;;5.27;;
21168;SDS011;10742;51.816;8.662;2024-01-10T03:17:57;16.63;;;4.80;;
21168;SDS011;10742;51.816;8.662;2024-01-10T03:21:18;15.47;;;4.63;;
21168;SDS011;10742;51.816;8.662;2024-01-10T03:24:45;13.57;;;4.33;;
21168;SDS011;10742;51.816;8.662;2024-01-10T03:28:06;17.13;;;5.17;;
21168;SDS011;10742;51.816;8.662;2024-01-10T03:31:28;15.03;;;4.70;;
21168;SDS011;10742;51.816;8.662;2024-01-10T03:34:51;19.13;;;4.90;;
21168;SDS011;10742;51.816;8.662;2024-01-10T03:38:13;17.23;;;5.13;;
21168;SDS011;10742;51.816;8.662;2024-01-10T03:41:36;18.97;;;4.50;;
21168;SDS011;10742;51.816;8.662;2024-01-10T03:44:58;17.17;;;4.67;;
21168;SDS011;10742;51.816;8.662;2024-01-10T03:48:20;16.47;;;4.60;;
21168;SDS011;10742;51.816;8.662;2024-01-10T03:51:42;19.43;;;5.40;;
21168;SDS011;10742;51.816;8.662;2024-01-10T03:55:03;23.53;;;5.37;;
21168;SDS011;10742;51.816;8.662;2024-01-10T03:58:24;16.83;;;5.10;;
21168;SDS011;10742;51.816;8.662;2024-01-10T04:01:47;23.73;;;5.30;;
21168;SDS011;10742;51.816;8.662;2024-01-10T04:05:09;14.63;;;4.87;;
21168;SDS011;10742;51.816;8.662;2024-01-10T04:08:32;19.47;;;5.03;;
21168;SDS011;10742;51.816;8.662;2024-01-10T04:11:54;19.70;;;4.87;;
21168;SDS011;10742;51.816;8.662;2024-01-10T04:15:15;18.70;;;5.30;;
21168;SDS011;10742;51.816;8.662;2024-01-10T04:18:38;15.73;;;4.43;;
21168;SDS011;10742;51.816;8.662;2024-01-10T04:22:00;19.10;;;5.13;;
21168;SDS011;10742;51.816;8.662;2024-01-10T04:25:21;15.70;;;4.73;;
21168;SDS011;10742;51.816;8.662;2024-01-10T04:28:43;16.43;;;4.80;;
21168;SDS011;10742;51.816;8.662;2024-01-10T04:32:04;17.73;;;5.03;;
21168;SDS011;10742;51.816;8.662;2024-01-10T04:35:26;15.20;;;4.90;;
21168;SDS011;10742;51.816;8.662;2024-01-10T04:38:47;15.07;;;4.80;;
21168;SDS011;10742;51.816;8.662;2024-01-10T04:42:12;15.73;;;4.60;;
21168;SDS011;10742;51.816;8.662;2024-01-10T04:45:33;21.70;;;5.37;;
21168;SDS011;10742;51.816;8.662;2024-01-10T04:48:55;18.80;;;5.03;;
21168;SDS011;10742;51.816;8.662;2024-01-10T04:52:16;16.57;;;5.10;;
21168;SDS011;10742;51.816;8.662;2024-01-10T04:55:37;15.20;;;4.97;;
21168;SDS011;10742;51.816;8.662;2024-01-10T04:58:59;15.63;;;4.90;;
21168;SDS011;10742;51.816;8.662;2024-01-10T05:02:20;14.97;;;4.57;;
21168;SDS011;10742;51.816;8.662;2024-01-10T05:05:42;22.50;;;5.23;;
21168;SDS011;10742;51.816;8.662;2024-01-10T05:09:03;17.23;;;4.83;;
21168;SDS011;10742;51.816;8.662;2024-01-10T05:12:25;17.20;;;4.83;;
21168;SDS011;10742;51.816;8.662;2024-01-10T05:15:46;17.00;;;4.97;;
21168;SDS011;10742;51.816;8.662;2024-01-10T05:19:08;21.53;;;5.93;;
21168;SDS011;10742;51.816;8.662;2024-01-10T05:22:30;22.07;;;5.77;;
21168;SDS011;10742;51.816;8.662;2024-01-10T05:25:51;16.47;;;4.90;;
21168;SDS011;10742;51.816;8.662;2024-01-10T05:29:12;21.33;;;4.90;;
21168;SDS011;10742;51.816;8.662;2024-01-10T05:32:34;18.97;;;5.17;;
21168;SDS011;10742;51.816;8.662;2024-01-10T05:35:55;17.70;;;5.30;;
21168;SDS011;10742;51.816;8.662;2024-01-10T05:39:17;18.73;;;5.67;;
21168;SDS011;10742;51.816;8.662;2024-01-10T05:42:41;20.10;;;5.90;;
21168;SDS011;10742;51.816;8.662;2024-01-10T05:46:02;25.95;;;8.00;;
21168;SDS011;10742;51.816;8.662;2024-01-10T05:49:26;24.40;;;6.77;;
21168;SDS011;10742;51.816;8.662;2024-01-10T05:52:47;19.67;;;6.37;;
21168;SDS011;10742;51.816;8.662;2024-01-10T05:56:09;25.20;;;6.43;;
21168;SDS011;10742;51.816;8.662;2024-01-10T05:59:31;21.30;;;6.33;;
21168;SDS011;10742;51.816;8.662;2024-01-10T06:02:52;23.08;;;6.78;;
21168;SDS011;10742;51.816;8.662;2024-01-10T06:06:13;24.40;;;6.60;;
21168;SDS011;10742;51.816;8.662;2024-01-10T06:09:35;25.63;;;7.50;;
21168;SDS011;10742;51.816;8.662;2024-01-10T06:12:56;20.47;;;6.67;;
21168;SDS011;10742;51.816;8.662;2024-01-10T06:16:17;22.87;;;6.47;;
21168;SDS011;10742;51.816;8.662;2024-01-10T06:19:39;21.83;;;6.77;;
21168;SDS011;10742;51.816;8.662;2024-01-10T06:23:00;22.80;;;7.40;;
21168;SDS011;10742;51.816;8.662;2024-01-10T06:26:22;22.13;;;7.37;;
21168;SDS011;10742;51.816;8.662;2024-01-10T06:29:43;24.57;;;7.90;;
21168;SDS011;10742;51.816;8.662;2024-01-10T06:33:05;23.87;;;7.13;;
21168;SDS011;10742;51.816;8.662;2024-01-10T06:36:27;22.10;;;7.07;;
21168;SDS011;10742;51.816;8.662;2024-01-10T06:39:49;22.77;;;6.10;;
21168;SDS011;10742;51.816;8.662;2024-01-10T06:43:10;23.97;;;7.23;;
21168;SDS011;10742;51.816;8.662;2024-01-10T06:46:32;23.63;;;7.53;;
21168;SDS011;10742;51.816;8.662;2024-01-10T06:49:54;24.30;;;7.80;;
21168;SDS011;10742;51.816;8.662;2024-01-10T06:53:15;18.53;;;5.87;;
21168;SDS011;10742;51.816;8.662;2024-01-10T06:56:37;25.60;;;7.03;;
21168;SDS011;10742;51.816;8.662;2024-01-10T06:59:58;25.63;;;7.33;;
21168;SDS011;10742;51.816;8.662;2024-01-10T07:03:19;22.93;;;8.40;;
21168;SDS011;10742;51.816;8.662;2024-01-10T07:06:40;26.77;;;8.13;;
21168;SDS011;10742;51.816;8.662;2024-01-10T07:10:01;25.63;;;6.53;;
21168;SDS011;10742;51.816;8.662;2024-01-10T07:13:26;25.70;;;7.97;;
21168;SDS011;10742;51.816;8.662;2024-01-10T07:16:47;23.47;;;7.27;;
21168;SDS011;10742;51.816;8.662;2024-01-10T07:20:09;27.03;;;8.57;;
21168;SDS011;10742;51.816;8.662;2024-01-10T07:23:32;23.73;;;7.70;;
21168;SDS011;10742;51.816;8.662;2024-01-10T07:26:55;29.20;;;8.50;;
21168;SDS011;10742;51.816;8.662;2024-01-10T07:30:17;26.53;;;8.40;;
21168;SDS011;10742;51.816;8.662;2024-01-10T07:33:39;26.10;;;7.83;;
21168;SDS011;10742;51.816;8.662;2024-01-10T07:37:00;27.80;;;8.23;;
21168;SDS011;10742;51.816;8.662;2024-01-10T07:40:21;27.10;;;9.73;;
21168;SDS011;10742;51.816;8.662;2024-01-10T07:43:43;26.27;;;8.50;;
21168;SDS011;10742;51.816;8.662;2024-01-10T07:47:04;30.40;;;9.27;;
21168;SDS011;10742;51.816;8.662;2024-01-10T07:50:26;29.77;;;8.60;;
21168;SDS011;10742;51.816;8.662;2024-01-10T07:53:48;29.30;;;9.37;;
21168;SDS011;10742;51.816;8.662;2024-01-10T07:57:10;27.67;;;8.93;;
21168;SDS011;10742;51.816;8.662;2024-01-10T08:00:31;25.17;;;8.13;;
21168;SDS011;10742;51.816;8.662;2024-01-10T08:03:52;29.27;;;8.70;;
21168;SDS011;10742;51.816;8.662;2024-01-10T08:07:14;29.57;;;9.33;;
21168;SDS011;10742;51.816;8.662;2024-01-10T08:10:35;27.90;;;8.90;;
21168;SDS011;10742;51.816;8.662;2024-01-10T08:13:57;27.53;;;8.73;;
21168;SDS011;10742;51.816;8.662;2024-01-10T08:17:18;28.83;;;9.20;;
21168;SDS011;10742;51.816;8.662;2024-01-10T08:20:40;29.57;;;10.03;;
21168;SDS011;10742;51.816;8.662;2024-01-10T08:24:01;29.90;;;9.13;;
21168;SDS011;10742;51.816;8.662;2024-01-10T08:27:23;33.87;;;11.60;;
21168;SDS011;10742;51.816;8.662;2024-01-10T08:30:45;39.53;;;14.07;;
21168;SDS011;10742;51.816;8.662;2024-01-10T08:34:06;47.83;;;16.40;;
21168;SDS011;10742;51.816;8.662;2024-01-10T08:37:28;44.07;;;16.87;;
21168;SDS011;10742;51.816;8.662;2024-01-10T08:40:49;42.13;;;14.33;;
21168;SDS011;10742;51.816;8.662;2024-01-10T08:44:10;35.07;;;11.87;;
21168;SDS011;10742;51.816;8.662;2024-01-10T08:47:32;38.17;;;12.53;;
21168;SDS011;10742;51.816;8.662;2024-01-10T08:50:55;37.23;;;11.67;;
21168;SDS011;10742;51.816;8.662;2024-01-10T08:54:17;33.27;;;12.00;;
21168;SDS011;10742;51.816;8.662;2024-01-10T08:57:40;31.37;;;11.33;;
21168;SDS011;10742;51.816;8.662;2024-01-10T09:01:02;30.77;;;11.73;;
21168;SDS011;10742;51.816;8.662;2024-01-10T09:04:25;30.23;;;11.47;;
21168;SDS011;10742;51.816;8.662;2024-01-10T09:07:46;33.97;;;12.70;;
21168;SDS011;10742;51.816;8.662;2024-01-10T09:11:08;32.50;;;11.73;;
21168;SDS011;10742;51.816;8.662;2024-01-10T09:14:30;29.93;;;10.57;;
21168;SDS011;10742;51.816;8.662;2024-01-10T09:17:51;31.63;;;10.43;;
21168;SDS011;10742;51.816;8.662;2024-01-10T09:21:12;29.20;;;10.73;;
21168;SDS011;10742;51.816;8.662;2024-01-10T09:24:34;32.50;;;9.87;;
21168;SDS011;10742;51.816;8.662;2024-01-10T09:27:55;27.20;;;9.33;;
21168;SDS011;10742;51.816;8.662;2024-01-10T09:31:17;30.20;;;9.40;;
21168;SDS011;10742;51.816;8.662;2024-01-10T09:34:38;28.37;;;9.03;;
21168;SDS011;10742;51.816;8.662;2024-01-10T09:37:59;28.57;;;9.70;;
21168;SDS011;10742;51.816;8.662;2024-01-10T09:41:21;31.93;;;10.23;;
21168;SDS011;10742;51.816;8.662;2024-01-10T09:44:43;30.87;;;10.23;;
21168;SDS011;10742;51.816;8.662;2024-01-10T09:48:05;28.70;;;9.83;;
21168;SDS011;10742;51.816;8.662;2024-01-10T09:51:27;31.80;;;9.43;;
21168;SDS011;10742;51.816;8.662;2024-01-10T09:54:54;27.97;;;9.27;;
21168;SDS011;10742;51.816;8.662;2024-01-10T09:58:19;26.63;;;8.53;;
21168;SDS011;10742;51.816;8.662;2024-01-10T10:01:40;28.67;;;8.57;;
21168;SDS011;10742;51.816;8.662;2024-01-10T10:05:03;24.63;;;8.63;;
21168;SDS011;10742;51.816;8.662;2024-01-10T10:08:28;27.07;;;8.50;;
21168;SDS011;10742;51.816;8.662;2024-01-10T10:11:56;24.47;;;7.93;;
21168;SDS011;10742;51.816;8.662;2024-01-10T10:15:24;30.97;;;8.80;;
21168;SDS011;10742;51.816;8.662;2024-01-10T10:18:48;25.60;;;8.00;;
21168;SDS011;10742;51.816;8.662;2024-01-10T10:22:11;26.53;;;8.27;;
21168;SDS011;10742;51.816;8.662;2024-01-10T10:25:33;24.60;;;8.00;;
21168;SDS011;10742;51.816;8.662;2024-01-10T10:28:56;24.03;;;8.23;;
21168;SDS011;10742;51.816;8.662;2024-01-10T10:32:18;22.63;;;7.70;;
21168;SDS011;10742;51.816;8.662;2024-01-10T10:35:39;24.57;;;7.80;;
21168;SDS011;10742;51.816;8.662;2024-01-10T10:39:01;25.03;;;7.83;;
21168;SDS011;10742;51.816;8.662;2024-01-10T10:42:24;22.03;;;7.10;;
21168;SDS011;10742;51.816;8.662;2024-01-10T10:45:49;21.70;;;6.93;;
21168;SDS011;10742;51.816;8.662;2024-01-10T10:49:11;21.77;;;7.60;;
21168;SDS011;10742;51.816;8.662;2024-01-10T10:52:34;23.13;;;7.50;;
21168;SDS011;10742;51.816;8.662;2024-01-10T10:55:57;24.23;;;7.30;;
21168;SDS011;10742;51.816;8.662;2024-01-10T10:59:19;21.63;;;6.67;;
21168;SDS011;10742;51.816;8.662;2024-01-10T11:02:42;21.07;;;7.10;;
21168;SDS011;10742;51.816;8.662;2024-01-10T11:06:06;18.57;;;6.90;;
21168;SDS011;10742;51.816;8.662;2024-01-10T11:09:28;20.83;;;6.03;;
21168;SDS011;10742;51.816;8.662;2024-01-10T11:20:22;18.37;;;6.00;;
21168;SDS011;10742;51.816;8.662;2024-01-10T11:23:56;20.30;;;6.37;;
21168;SDS011;10742;51.816;8.662;2024-01-10T11:27:20;21.23;;;6.03;;
21168;SDS011;10742;51.816;8.662;2024-01-10T11:30:48;20.97;;;6.60;;
21168;SDS011;10742;51.816;8.662;2024-01-10T11:34:14;16.60;;;5.63;;
21168;SDS011;10742;51.816;8.662;2024-01-10T11:37:38;17.63;;;6.10;;
21168;SDS011;10742;51.816;8.662;2024-01-10T11:41:03;19.03;;;5.97;;
21168;SDS011;10742;51.816;8.662;2024-01-10T11:44:25;19.17;;;5.90;;
21168;SDS011;10742;51.816;8.662;2024-01-10T11:47:46;17.83;;;5.90;;
21168;SDS011;10742;51.816;8.662;2024-01-10T11:51:12;19.03;;;6.03;;
21168;SDS011;10742;51.816;8.662;2024-01-10T11:58:08;16.63;;;5.70;;
21168;SDS011;10742;51.816;8.662;2024-01-10T12:01:30;16.07;;;5.33;;
21168;SDS011;10742;51.816;8.662;2024-01-10T12:04:53;16.83;;;5.50;;
21168;SDS011;10742;51.816;8.662;2024-01-10T12:08:15;20.23;;;6.53;;
21168;SDS011;10742;51.816;8.662;2024-01-10T12:11:39;20.13;;;6.20;;
21168;SDS011;10742;51.816;8.662;2024-01-10T12:15:02;18.50;;;6.23;;
21168;SDS011;10742;51.816;8.662;2024-01-10T12:18:25;19.43;;;6.20;;
21168;SDS011;10742;51.816;8.662;2024-01-10T12:21:48;22.53;;;6.70;;
21168;SDS011;10742;51.816;8.662;2024-01-10T12:25:09;16.97;;;6.17;;
21168;SDS011;10742;51.816;8.662;2024-01-10T12:28:31;17.60;;;6.13;;
21168;SDS011;10742;51.816;8.662;2024-01-10T12:31:52;21.43;;;6.07;;
21168;SDS011;10742;51.816;8.662;2024-01-10T12:35:14;21.07;;;6.53;;
21168;SDS011;10742;51.816;8.662;2024-01-10T12:38:39;16.47;;;5.67;;
21168;SDS011;10742;51.816;8.662;2024-01-10T12:42:00;20.67;;;6.43;;
21168;SDS011;10742;51.816;8.662;2024-01-10T12:45:22;19.20;;;6.17;;
21168;SDS011;10742;51.816;8.662;2024-01-10T12:48:43;20.63;;;6.93;;
21168;SDS011;10742;51.816;8.662;2024-01-10T12:52:06;18.73;;;6.17;;
21168;SDS011;10742;51.816;8.662;2024-01-10T12:55:29;23.07;;;6.60;;
21168;SDS011;10742;51.816;8.662;2024-01-10T12:58:50;21.33;;;6.13;;
21168;SDS011;10742;51.816;8.662;2024-01-10T13:02:12;18.40;;;6.43;;
21168;SDS011;10742;51.816;8.662;2024-01-10T13:05:33;19.90;;;6.60;;
21168;SDS011;10742;51.816;8.662;2024-01-10T13:08:54;20.77;;;6.67;;
21168;SDS011;10742;51.816;8.662;2024-01-10T13:12:16;18.60;;;6.23;;
21168;SDS011;10742;51.816;8.662;2024-01-10T13:15:37;20.70;;;6.60;;
21168;SDS011;10742;51.816;8.662;2024-01-10T13:18:59;20.93;;;7.07;;
21168;SDS011;10742;51.816;8.662;2024-01-10T13:22:21;22.13;;;7.13;;
21168;SDS011;10742;51.816;8.662;2024-01-10T13:25:42;21.03;;;6.90;;
21168;SDS011;10742;51.816;8.662;2024-01-10T13:29:03;20.87;;;6.63;;
21168;SDS011;10742;51.816;8.662;2024-01-10T13:32:24;21.70;;;6.87;;
21168;SDS011;10742;51.816;8.662;2024-01-10T13:35:46;20.50;;;6.03;;
21168;SDS011;10742;51.816;8.662;2024-01-10T13:39:08;22.17;;;6.67;;
21168;SDS011;10742;51.816;8.662;2024-01-10T13:42:29;17.97;;;6.43;;
21168;SDS011;10742;51.816;8.662;2024-01-10T13:45:50;20.53;;;6.67;;
21168;SDS011;10742;51.816;8.662;2024-01-10T13:49:13;22.97;;;7.10;;
21168;SDS011;10742;51.816;8.662;2024-01-10T13:52:35;21.57;;;6.67;;
21168;SDS011;10742;51.816;8.662;2024-01-10T13:55:57;19.10;;;6.47;;
21168;SDS011;10742;51.816;8.662;2024-01-10T13:59:18;23.57;;;6.63;;
21168;SDS011;10742;51.816;8.662;2024-01-10T14:02:43;21.27;;;6.97;;
21168;SDS011;10742;51.816;8.662;2024-01-10T14:06:05;22.27;;;7.10;;
21168;SDS011;10742;51.816;8.662;2024-01-10T14:09:27;21.27;;;6.87;;
21168;SDS011;10742;51.816;8.662;2024-01-10T14:12:49;24.27;;;7.70;;
21168;SDS011;10742;51.816;8.662;2024-01-10T14:16:11;19.67;;;6.80;;
21168;SDS011;10742;51.816;8.662;2024-01-10T14:19:32;24.70;;;7.53;;
21168;SDS011;10742;51.816;8.662;2024-01-10T14:22:53;19.53;;;6.90;;
21168;SDS011;10742;51.816;8.662;2024-01-10T14:26:15;22.93;;;7.43;;
21168;SDS011;10742;51.816;8.662;2024-01-10T14:29:36;24.70;;;8.57;;
21168;SDS011;10742;51.816;8.662;2024-01-10T14:32:57;27.17;;;8.23;;
21168;SDS011;10742;51.816;8.662;2024-01-10T14:36:19;20.63;;;7.30;;
21168;SDS011;10742;51.816;8.662;2024-01-10T14:39:42;21.80;;;7.93;;
21168;SDS011;10742;51.816;8.662;2024-01-10T14:43:03;27.47;;;7.77;;
21168;SDS011;10742;51.816;8.662;2024-01-10T14:46:24;28.17;;;8.00;;
21168;SDS011;10742;51.816;8.662;2024-01-10T14:49:46;23.53;;;8.30;;
21168;SDS011;10742;51.816;8.662;2024-01-10T14:53:07;25.03;;;7.90;;
21168;SDS011;10742;51.816;8.662;2024-01-10T14:56:29;25.00;;;8.10;;
21168;SDS011;10742;51.816;8.662;2024-01-10T14:59:50;23.40;;;7.97;;
21168;SDS011;10742;51.816;8.662;2024-01-10T15:03:11;20.87;;;7.57;;
21168;SDS011;10742;51.816;8.662;2024-01-10T15:06:35;24.30;;;8.13;;
21168;SDS011;10742;51.816;8.662;2024-01-10T15:09:57;23.77;;;8.13;;
21168;SDS011;10742;51.816;8.662;2024-01-10T15:13:19;23.40;;;7.67;;
21168;SDS011;10742;51.816;8.662;2024-01-10T15:16:41;25.43;;;9.10;;
21168;SDS011;10742;51.816;8.662;2024-01-10T15:20:03;33.17;;;11.43;;
21168;SDS011;10742;51.816;8.662;2024-01-10T15:23:24;37.20;;;12.70;;
21168;SDS011;10742;51.816;8.662;2024-01-10T15:26:46;32.13;;;11.67;;
21168;SDS011;10742;51.816;8.662;2024-01-10T15:30:08;31.27;;;11.00;;
21168;SDS011;10742;51.816;8.662;2024-01-10T15:33:31;29.17;;;10.63;;
21168;SDS011;10742;51.816;8.662;2024-01-10T15:36:54;30.67;;;10.90;;
21168;SDS011;10742;51.816;8.662;2024-01-10T15:40:16;26.97;;;9.73;;
21168;SDS011;10742;51.816;8.662;2024-01-10T15:43:37;30.03;;;10.80;;
21168;SDS011;10742;51.816;8.662;2024-01-10T15:46:59;28.87;;;10.87;;
21168;SDS011;10742;51.816;8.662;2024-01-10T15:50:20;32.17;;;11.37;;
21168;SDS011;10742;51.816;8.662;2024-01-10T15:53:41;28.90;;;11.40;;
21168;SDS011;10742;51.816;8.662;2024-01-10T15:57:05;29.03;;;10.83;;
21168;SDS011;10742;51.816;8.662;2024-01-10T16:00:27;32.73;;;11.73;;
21168;SDS011;10742;51.816;8.662;2024-01-10T16:03:48;30.73;;;11.13;;
21168;SDS011;10742;51.816;8.662;2024-01-10T16:07:10;31.27;;;11.13;;
21168;SDS011;10742;51.816;8.662;2024-01-10T16:10:32;35.30;;;12.13;;
21168;SDS011;10742;51.816;8.662;2024-01-10T16:13:53;33.97;;;12.17;;
21168;SDS011;10742;51.816;8.662;2024-01-10T16:17:15;39.97;;;12.13;;
21168;SDS011;10742;51.816;8.662;2024-01-10T16:20:36;33.03;;;12.13;;
21168;SDS011;10742;51.816;8.662;2024-01-10T16:23:58;35.17;;;13.23;;
21168;SDS011;10742;51.816;8.662;2024-01-10T16:27:20;34.70;;;12.43;;
21168;SDS011;10742;51.816;8.662;2024-01-10T16:30:42;33.20;;;12.77;;
21168;SDS011;10742;51.816;8.662;2024-01-10T16:34:03;32.77;;;12.10;;
21168;SDS011;10742;51.816;8.662;2024-01-10T16:37:24;37.07;;;13.00;;
21168;SDS011;10742;51.816;8.662;2024-01-10T16:40:46;34.47;;;12.87;;
21168;SDS011;10742;51.816;8.662;2024-01-10T16:44:07;37.77;;;13.70;;
21168;SDS011;10742;51.816;8.662;2024-01-10T16:47:29;37.03;;;12.77;;
21168;SDS011;10742;51.816;8.662;2024-01-10T16:50:51;35.43;;;12.53;;
21168;SDS011;10742;51.816;8.662;2024-01-10T16:54:12;37.17;;;13.03;;
21168;SDS011;10742;51.816;8.662;2024-01-10T16:57:34;39.43;;;12.73;;
21168;SDS011;10742;51.816;8.662;2024-01-10T17:00:55;36.83;;;13.33;;
21168;SDS011;10742;51.816;8.662;2024-01-10T17:04:17;34.83;;;13.97;;
21168;SDS011;10742;51.816;8.662;2024-01-10T17:07:39;36.87;;;14.10;;
21168;SDS011;10742;51.816;8.662;2024-01-10T17:11:04;36.77;;;14.17;;
21168;SDS011;10742;51.816;8.662;2024-01-10T17:14:25;36.73;;;14.87;;
21168;SDS011;10742;51.816;8.662;2024-01-10T17:17:46;38.73;;;14.33;;
21168;SDS011;10742;51.816;8.662;2024-01-10T17:21:08;39.37;;;14.80;;
21168;SDS011;10742;51.816;8.662;2024-01-10T17:24:30;38.30;;;14.20;;
21168;SDS011;10742;51.816;8.662;2024-01-10T17:27:51;37.90;;;14.30;;
21168;SDS011;10742;51.816;8.662;2024-01-10T17:31:13;38.60;;;15.13;;
21168;SDS011;10742;51.816;8.662;2024-01-10T17:34:34;40.13;;;14.67;;
21168;SDS011;10742;51.816;8.662;2024-01-10T17:37:56;41.70;;;15.07;;
21168;SDS011;10742;51.816;8.662;2024-01-10T17:41:17;38.07;;;14.03;;
21168;SDS011;10742;51.816;8.662;2024-01-10T17:44:39;37.63;;;13.83;;
21168;SDS011;10742;51.816;8.662;2024-01-10T17:48:00;40.13;;;15.13;;
21168;SDS011;10742;51.816;8.662;2024-01-10T17:51:21;42.40;;;15.17;;
21168;SDS011;10742;51.816;8.662;2024-01-10T17:54:44;39.27;;;15.07;;
21168;SDS011;10742;51.816;8.662;2024-01-10T17:58:07;43.13;;;15.97;;
21168;SDS011;10742;51.816;8.662;2024-01-10T18:01:29;44.83;;;17.40;;
21168;SDS011;10742;51.816;8.662;2024-01-10T18:04:51;41.63;;;16.10;;
21168;SDS011;10742;51.816;8.662;2024-01-10T18:08:13;46.87;;;16.23;;
21168;SDS011;10742;51.816;8.662;2024-01-10T18:11:34;43.67;;;16.37;;
21168;SDS011;10742;51.816;8.662;2024-01-10T18:14:56;42.40;;;15.53;;
21168;SDS011;10742;51.816;8.662;2024-01-10T18:18:17;39.50;;;14.77;;
21168;SDS011;10742;51.816;8.662;2024-01-10T18:21:38;44.97;;;16.17;;
21168;SDS011;10742;51.816;8.662;2024-01-10T18:25:00;41.73;;;15.50;;
21168;SDS011;10742;51.816;8.662;2024-01-10T18:28:21;45.37;;;16.27;;
21168;SDS011;10742;51.816;8.662;2024-01-10T18:31:43;42.93;;;16.27;;
21168;SDS011;10742;51.816;8.662;2024-01-10T18:35:04;45.20;;;16.03;;
21168;SDS011;10742;51.816;8.662;2024-01-10T18:38:25;43.70;;;16.33;;
21168;SDS011;10742;51.816;8.662;2024-01-10T18:41:47;47.40;;;17.10;;
21168;SDS011;10742;51.816;8.662;2024-01-10T18:45:08;46.40;;;16.87;;
21168;SDS011;10742;51.816;8.662;2024-01-10T18:48:30;44.53;;;15.17;;
21168;SDS011;10742;51.816;8.662;2024-01-10T18:51:51;47.50;;;16.93;;
21168;SDS011;10742;51.816;8.662;2024-01-10T18:55:13;45.03;;;16.73;;
21168;SDS011;10742;51.816;8.662;2024-01-10T18:58:34;41.13;;;14.73;;
21168;SDS011;10742;51.816;8.662;2024-01-10T19:01:55;41.33;;;15.47;;
21168;SDS011;10742;51.816;8.662;2024-01-10T19:05:18;40.43;;;15.00;;
21168;SDS011;10742;51.816;8.662;2024-01-10T19:08:41;43.43;;;14.87;;
21168;SDS011;10742;51.816;8.662;2024-01-10T19:12:03;37.87;;;14.03;;
21168;SDS011;10742;51.816;8.662;2024-01-10T19:15:25;44.97;;;17.03;;
21168;SDS011;10742;51.816;8.662;2024-01-10T19:18:46;44.73;;;17.33;;
21168;SDS011;10742;51.816;8.662;2024-01-10T19:22:08;45.67;;;17.87;;
21168;SDS011;10742;51.816;8.662;2024-01-10T19:25:29;44.13;;;17.70;;
21168;SDS011;10742;51.816;8.662;2024-01-10T19:28:50;42.93;;;17.13;;
21168;SDS011;10742;51.816;8.662;2024-01-10T19:32:12;43.90;;;16.80;;
21168;SDS011;10742;51.816;8.662;2024-01-10T19:35:34;44.80;;;17.47;;
21168;SDS011;10742;51.816;8.662;2024-01-10T19:38:55;39.70;;;16.03;;
21168;SDS011;10742;51.816;8.662;2024-01-10T19:42:17;41.53;;;16.17;;
21168;SDS011;10742;51.816;8.662;2024-01-10T19:45:39;44.67;;;18.13;;
21168;SDS011;10742;51.816;8.662;2024-01-10T19:49:00;42.90;;;16.20;;
21168;SDS011;10742;51.816;8.662;2024-01-10T19:52:22;49.53;;;17.20;;
21168;SDS011;10742;51.816;8.662;2024-01-10T19:55:44;43.33;;;16.87;;
21168;SDS011;10742;51.816;8.662;2024-01-10T19:59:05;46.63;;;17.30;;
21168;SDS011;10742;51.816;8.662;2024-01-10T20:02:26;48.47;;;17.37;;
21168;SDS011;10742;51.816;8.662;2024-01-10T20:05:48;46.50;;;16.20;;